createdAt,value
2018-10-21T00:01:18.168Z,15.07
2018-10-21T00:03:48.170Z,13.13
2018-10-21T00:06:18.178Z,14.27
2018-10-21T00:08:48.269Z,13.67
2018-10-21T00:11:18.343Z,12.90
2018-10-21T00:13:48.241Z,12.60
2018-10-21T00:16:18.275Z,14.10
2018-10-21T00:18:48.301Z,17.20
2018-10-21T00:21:18.326Z,14.80
2018-10-21T00:23:48.321Z,14.73
2018-10-21T00:26:18.364Z,15.27
2018-10-21T00:28:48.439Z,14.43
2018-10-21T00:31:18.557Z,16.17
2018-10-21T00:33:48.623Z,15.63
2018-10-21T00:36:18.762Z,15.03
2018-10-21T00:38:48.785Z,14.53
2018-10-21T00:41:18.850Z,12.73
2018-10-21T00:43:48.798Z,14.00
2018-10-21T00:46:18.758Z,14.67
2018-10-21T00:48:48.762Z,14.53
2018-10-21T00:51:18.940Z,14.57
2018-10-21T00:53:48.909Z,14.00
2018-10-21T00:56:18.936Z,13.67
2018-10-21T00:58:48.938Z,16.60
2018-10-21T01:01:18.994Z,14.07
2018-10-21T01:03:49.095Z,13.97
2018-10-21T01:06:19.174Z,12.57
2018-10-21T01:08:49.273Z,14.83
2018-10-21T01:11:19.304Z,11.60
2018-10-21T01:13:49.435Z,12.67
2018-10-21T01:16:19.372Z,12.40
2018-10-21T01:18:49.442Z,13.00
2018-10-21T01:21:19.403Z,12.87
2018-10-21T01:23:49.420Z,12.37
2018-10-21T01:26:19.481Z,13.80
2018-10-21T01:28:49.516Z,13.03
2018-10-21T01:31:19.608Z,12.17
2018-10-21T01:33:49.580Z,12.17
2018-10-21T01:36:19.683Z,12.63
2018-10-21T01:38:49.557Z,11.37
2018-10-21T01:41:19.713Z,13.97
2018-10-21T01:43:49.798Z,10.70
2018-10-21T01:46:19.769Z,13.03
2018-10-21T01:48:49.797Z,14.83
2018-10-21T01:51:19.822Z,13.80
2018-10-21T01:53:49.723Z,14.23
2018-10-21T01:56:19.749Z,13.67
2018-10-21T01:58:49.818Z,14.63
2018-10-21T02:01:19.753Z,15.03
2018-10-21T02:03:49.838Z,13.13
2018-10-21T02:06:20.001Z,15.07
2018-10-21T02:08:49.981Z,13.30
2018-10-21T02:11:20.007Z,14.10
2018-10-21T02:13:49.961Z,12.07
2018-10-21T02:16:20.042Z,14.07
2018-10-21T02:18:49.987Z,14.67
2018-10-21T02:21:19.968Z,14.33
2018-10-21T02:23:49.930Z,11.67
2018-10-21T02:26:20.062Z,13.63
2018-10-21T02:28:49.968Z,12.97
2018-10-21T02:31:19.983Z,12.67
2018-10-21T02:33:49.946Z,12.47
2018-10-21T02:36:19.884Z,11.77
2018-10-21T02:38:49.956Z,12.07
2018-10-21T02:41:37.955Z,12.60
2018-10-21T02:44:09.158Z,12.77
2018-10-21T02:46:39.877Z,12.67
2018-10-21T02:49:10.919Z,13.40
2018-10-21T02:51:41.020Z,15.10
2018-10-21T02:54:11.655Z,11.50
2018-10-21T02:56:41.712Z,11.53
2018-10-21T03:02:12.096Z,13.00
2018-10-21T03:04:42.133Z,13.40
2018-10-21T03:07:12.196Z,12.37
2018-10-21T03:09:42.178Z,15.13
2018-10-21T03:12:12.229Z,12.57
2018-10-21T03:14:42.017Z,12.53
2018-10-21T03:17:12.194Z,14.13
2018-10-21T03:19:42.166Z,12.67
2018-10-21T03:22:12.153Z,14.47
2018-10-21T03:24:42.218Z,13.10
2018-10-21T03:27:12.275Z,11.77
2018-10-21T03:29:42.298Z,12.03
2018-10-21T03:32:12.330Z,12.57
2018-10-21T03:37:42.818Z,12.13
2018-10-21T03:40:12.870Z,14.47
2018-10-21T03:42:42.879Z,13.33
2018-10-21T03:45:12.861Z,12.07
2018-10-21T03:47:42.972Z,15.57
2018-10-21T03:50:13.318Z,14.50
2018-10-21T03:52:43.395Z,15.50
2018-10-21T03:55:13.445Z,11.50
2018-10-21T03:57:43.518Z,13.50
2018-10-21T04:00:13.645Z,12.77
2018-10-21T04:02:43.673Z,12.23
2018-10-21T04:05:13.738Z,12.37
2018-10-21T04:07:43.782Z,13.73
2018-10-21T04:10:14.503Z,15.23
2018-10-21T04:12:44.549Z,12.90
2018-10-21T04:15:14.530Z,13.13
2018-10-21T04:17:44.657Z,14.87
2018-10-21T04:20:14.749Z,12.03
2018-10-21T04:22:53.381Z,11.50
2018-10-21T04:25:24.299Z,12.73
2018-10-21T04:27:55.235Z,13.10
2018-10-21T04:30:30.459Z,14.63
2018-10-21T04:33:09.597Z,12.73
2018-10-21T04:35:39.508Z,14.57
2018-10-21T04:38:25.890Z,15.00
2018-10-21T04:40:55.529Z,15.27
2018-10-21T04:43:25.829Z,13.30
2018-10-21T04:45:55.953Z,13.87
2018-10-21T04:48:30.649Z,13.63
2018-10-21T04:51:00.709Z,12.30
2018-10-21T04:53:30.690Z,13.50
2018-10-21T04:56:00.689Z,12.83
2018-10-21T04:58:30.783Z,14.20
2018-10-21T05:01:01.124Z,13.70
2018-10-21T05:03:31.186Z,15.77
2018-10-21T05:06:01.322Z,13.47
2018-10-21T05:08:31.309Z,14.20
2018-10-21T05:11:01.283Z,14.37
2018-10-21T05:13:31.424Z,13.60
2018-10-21T05:16:01.552Z,15.40
2018-10-21T05:18:31.581Z,13.10
2018-10-21T05:21:01.599Z,12.30
2018-10-21T05:23:31.586Z,12.77
2018-10-21T05:26:01.656Z,16.90
2018-10-21T05:28:31.664Z,14.80
2018-10-21T05:31:01.793Z,16.00
2018-10-21T05:33:31.817Z,15.13
2018-10-21T05:36:01.842Z,14.37
2018-10-21T05:38:31.921Z,13.57
2018-10-21T05:41:01.938Z,15.63
2018-10-21T05:43:31.944Z,13.80
2018-10-21T05:46:02.056Z,13.40
2018-10-21T05:48:32.061Z,14.63
2018-10-21T05:51:02.197Z,15.33
2018-10-21T05:53:32.288Z,20.23
2018-10-21T05:56:02.332Z,15.23
2018-10-21T05:58:34.414Z,17.83
2018-10-21T06:01:04.478Z,15.27
2018-10-21T06:03:34.579Z,14.27
2018-10-21T06:12:22.911Z,13.17
2018-10-21T06:17:46.567Z,14.07
2018-10-21T06:20:24.629Z,15.87
2018-10-21T06:22:54.831Z,14.07
2018-10-21T06:25:24.875Z,18.63
2018-10-21T06:27:54.931Z,14.07
2018-10-21T06:30:25.022Z,16.80
2018-10-21T06:32:55.123Z,15.30
2018-10-21T06:35:25.126Z,16.30
2018-10-21T06:37:55.077Z,17.87
2018-10-21T06:40:25.134Z,18.57
2018-10-21T06:42:55.280Z,14.93
2018-10-21T06:45:25.477Z,15.50
2018-10-21T06:47:55.533Z,16.73
2018-10-21T06:50:25.497Z,17.83
2018-10-21T06:52:55.554Z,19.97
2018-10-21T06:55:25.693Z,17.93
2018-10-21T06:57:55.760Z,16.20
2018-10-21T07:00:25.788Z,17.73
2018-10-21T07:02:55.726Z,15.83
2018-10-21T07:05:36.571Z,14.33
2018-10-21T07:08:06.593Z,17.47
2018-10-21T07:10:36.657Z,15.57
2018-10-21T07:13:06.685Z,15.33
2018-10-21T07:15:36.725Z,14.53
2018-10-21T07:18:06.826Z,17.97
2018-10-21T07:20:36.860Z,17.30
2018-10-21T07:23:06.918Z,16.07
2018-10-21T07:25:36.987Z,14.53
2018-10-21T07:28:07.025Z,17.30
2018-10-21T07:30:36.961Z,14.93
2018-10-21T07:33:07.179Z,20.20
2018-10-21T07:35:37.311Z,18.43
2018-10-21T07:38:07.322Z,17.87
2018-10-21T07:40:37.362Z,19.33
2018-10-21T07:43:07.527Z,17.73
2018-10-21T07:45:37.593Z,17.43
2018-10-21T07:48:07.607Z,17.20
2018-10-21T07:50:38.536Z,18.13
2018-10-21T07:53:08.644Z,17.20
2018-10-21T07:55:38.690Z,16.00
2018-10-21T07:58:08.810Z,17.93
2018-10-21T08:00:38.940Z,18.67
2018-10-21T08:03:09.257Z,18.53
2018-10-21T08:05:50.200Z,16.83
2018-10-21T08:08:23.144Z,16.60
2018-10-21T08:10:53.198Z,15.67
2018-10-21T08:13:25.522Z,17.10
2018-10-21T08:15:55.574Z,15.43
2018-10-21T08:18:31.093Z,17.37
2018-10-21T08:21:01.187Z,15.20
2018-10-21T08:23:31.262Z,14.53
2018-10-21T08:26:01.317Z,16.23
2018-10-21T08:28:30.954Z,15.63
2018-10-21T08:31:01.045Z,18.63
2018-10-21T08:33:31.026Z,15.83
2018-10-21T08:36:01.204Z,15.47
2018-10-21T08:38:30.922Z,15.93
2018-10-21T08:41:00.961Z,14.97
2018-10-21T08:43:31.192Z,16.80
2018-10-21T08:46:01.240Z,15.43
2018-10-21T08:51:24.719Z,14.43
2018-10-21T08:53:54.749Z,12.73
2018-10-21T08:56:25.244Z,15.17
2018-10-21T08:58:55.229Z,17.37
2018-10-21T09:04:43.266Z,12.87
2018-10-21T09:07:14.512Z,15.50
2018-10-21T09:09:54.910Z,13.10
2018-10-21T09:12:24.921Z,13.37
2018-10-21T09:14:54.928Z,15.20
2018-10-21T09:17:24.886Z,14.47
2018-10-21T09:19:54.849Z,19.30
2018-10-21T09:22:24.905Z,14.27
2018-10-21T09:24:54.864Z,15.53
2018-10-21T09:27:24.925Z,12.93
2018-10-21T09:29:54.937Z,15.73
2018-10-21T09:32:25.140Z,14.23
2018-10-21T09:34:55.062Z,15.73
2018-10-21T09:37:28.072Z,17.87
2018-10-21T09:40:20.653Z,15.17
2018-10-21T09:43:01.550Z,16.73
2018-10-21T09:45:31.581Z,14.23
2018-10-21T09:48:01.525Z,14.17
2018-10-21T09:50:31.499Z,17.23
2018-10-21T09:53:01.523Z,14.20
2018-10-21T09:55:31.549Z,14.83
2018-10-21T09:58:01.616Z,14.43
2018-10-21T10:00:36.651Z,15.70
2018-10-21T10:03:07.976Z,14.47
2018-10-21T10:05:38.075Z,13.97
2018-10-21T10:08:13.072Z,13.80
2018-10-21T10:10:43.181Z,13.33
2018-10-21T10:13:13.347Z,14.57
2018-10-21T10:15:43.380Z,11.77
2018-10-21T10:18:13.328Z,16.17
2018-10-21T10:20:43.372Z,14.53
2018-10-21T10:23:13.367Z,11.67
2018-10-21T10:25:43.436Z,12.93
2018-10-21T10:28:13.593Z,23.63
2018-10-21T10:30:43.342Z,19.77
2018-10-21T10:33:13.318Z,17.87
2018-10-21T10:35:43.319Z,12.50
2018-10-21T10:38:13.189Z,13.73
2018-10-21T10:40:43.321Z,20.30
2018-10-21T10:43:13.497Z,16.87
2018-10-21T10:45:43.367Z,12.63
2018-10-21T10:48:13.415Z,14.07
2018-10-21T10:50:43.429Z,13.20
2018-10-21T10:53:13.442Z,12.03
2018-10-21T10:55:52.626Z,13.70
2018-10-21T10:58:22.673Z,12.03
2018-10-21T11:00:52.674Z,11.37
2018-10-21T11:03:22.721Z,12.23
2018-10-21T11:05:52.768Z,13.13
2018-10-21T11:08:23.430Z,14.13
2018-10-21T11:10:53.401Z,13.43
2018-10-21T11:13:23.388Z,12.13
2018-10-21T11:15:53.449Z,12.53
2018-10-21T11:18:23.403Z,13.90
2018-10-21T11:20:53.433Z,13.10
2018-10-21T11:23:23.571Z,14.30
2018-10-21T11:25:53.583Z,13.93
2018-10-21T11:28:23.666Z,12.30
2018-10-21T11:30:53.703Z,10.50
2018-10-21T11:33:34.684Z,12.63
2018-10-21T11:36:06.768Z,11.73
2018-10-21T11:38:36.770Z,10.47
2018-10-21T11:41:07.276Z,10.10
2018-10-21T11:43:37.282Z,10.67
2018-10-21T11:46:07.758Z,10.23
2018-10-21T11:48:37.810Z,9.10
2018-10-21T11:54:07.584Z,8.87
2018-10-21T11:56:38.729Z,10.70
2018-10-21T11:59:12.188Z,8.87
2018-10-21T12:01:42.175Z,8.20
2018-10-21T12:04:27.783Z,9.23
2018-10-21T12:06:57.891Z,7.17
2018-10-21T12:09:27.954Z,9.20
2018-10-21T12:11:58.008Z,9.13
2018-10-21T12:14:27.961Z,7.80
2018-10-21T12:16:58.090Z,9.07
2018-10-21T12:19:37.839Z,9.63
2018-10-21T12:22:07.915Z,10.17
2018-10-21T12:24:37.906Z,6.40
2018-10-21T12:27:07.993Z,6.67
2018-10-21T12:29:37.945Z,8.37
2018-10-21T12:32:08.057Z,6.70
2018-10-21T12:34:38.047Z,8.90
2018-10-21T12:37:08.133Z,7.83
2018-10-21T12:39:38.100Z,8.30
2018-10-21T12:42:08.101Z,6.70
2018-10-21T12:44:38.077Z,6.10
2018-10-21T12:47:08.054Z,6.57
2018-10-21T12:49:38.088Z,7.00
2018-10-21T12:52:08.242Z,7.13
2018-10-21T12:54:38.392Z,6.93
2018-10-21T12:57:08.306Z,5.87
2018-10-21T12:59:38.285Z,7.23
2018-10-21T13:02:08.433Z,7.20
2018-10-21T13:04:38.437Z,6.23
2018-10-21T13:07:08.493Z,6.50
2018-10-21T13:09:38.429Z,5.73
2018-10-21T13:12:08.489Z,5.93
2018-10-21T13:14:38.435Z,7.77
2018-10-21T13:17:08.463Z,8.97
2018-10-21T13:19:38.484Z,6.80
2018-10-21T13:22:08.554Z,6.50
2018-10-21T13:24:38.487Z,7.40
2018-10-21T13:27:08.885Z,6.90
2018-10-21T13:29:43.520Z,6.43
2018-10-21T13:32:13.481Z,6.53
2018-10-21T13:34:43.595Z,5.87
2018-10-21T13:37:13.512Z,4.77
2018-10-21T13:39:43.591Z,6.83
2018-10-21T13:42:13.650Z,8.77
2018-10-21T13:44:43.790Z,8.60
2018-10-21T13:47:13.835Z,6.77
2018-10-21T13:49:43.878Z,7.20
2018-10-21T13:52:13.872Z,6.73
2018-10-21T13:54:43.808Z,6.53
2018-10-21T13:57:13.766Z,7.33
2018-10-21T13:59:43.755Z,7.93
2018-10-21T14:02:13.687Z,6.77
2018-10-21T14:04:43.775Z,5.90
2018-10-21T14:07:13.872Z,5.53
2018-10-21T14:09:43.897Z,6.37
2018-10-21T14:12:13.973Z,6.63
2018-10-21T14:14:44.121Z,7.17
2018-10-21T14:17:14.104Z,6.50
2018-10-21T14:19:44.067Z,7.13
2018-10-21T14:22:14.423Z,6.97
2018-10-21T14:24:44.305Z,7.23
2018-10-21T14:27:14.304Z,10.50
2018-10-21T14:29:44.623Z,7.87
2018-10-21T14:32:14.604Z,8.33
2018-10-21T14:34:44.657Z,6.40
2018-10-21T14:37:14.978Z,8.53
2018-10-21T14:39:44.964Z,7.93
2018-10-21T14:42:15.132Z,6.80
2018-10-21T14:44:45.018Z,5.90
2018-10-21T14:47:15.028Z,6.87
2018-10-21T14:49:44.943Z,6.37
2018-10-21T14:52:15.037Z,7.80
2018-10-21T14:54:45.044Z,6.33
2018-10-21T14:57:15.046Z,7.30
2018-10-21T14:59:45.047Z,7.60
2018-10-21T15:02:15.240Z,6.87
2018-10-21T15:04:45.340Z,8.63
2018-10-21T15:07:15.390Z,6.90
2018-10-21T15:09:45.441Z,7.37
2018-10-21T15:12:15.537Z,7.33
2018-10-21T15:14:45.457Z,7.17
2018-10-21T15:17:32.014Z,5.73
2018-10-21T15:20:08.717Z,7.70
2018-10-21T15:22:38.657Z,6.67
2018-10-21T15:25:10.386Z,7.50
2018-10-21T15:27:40.721Z,6.57
2018-10-21T15:30:11.866Z,8.93
2018-10-21T15:32:42.128Z,8.13
2018-10-21T15:35:12.059Z,6.13
2018-10-21T15:37:42.104Z,6.20
2018-10-21T15:40:12.427Z,7.07
2018-10-21T15:42:42.372Z,9.20
2018-10-21T15:45:13.043Z,7.67
2018-10-21T15:47:43.099Z,7.93
2018-10-21T15:50:13.185Z,7.70
2018-10-21T15:52:43.083Z,6.87
2018-10-21T15:55:13.142Z,8.60
2018-10-21T15:58:02.536Z,6.57
2018-10-21T16:00:32.546Z,8.23
2018-10-21T16:03:02.559Z,7.27
2018-10-21T16:05:32.605Z,7.53
2018-10-21T16:08:02.710Z,8.77
2018-10-21T16:10:32.618Z,6.77
2018-10-21T16:13:02.562Z,8.80
2018-10-21T16:15:32.633Z,9.27
2018-10-21T16:18:02.679Z,8.97
2018-10-21T16:20:32.683Z,7.90
2018-10-21T16:23:02.776Z,5.43
2018-10-21T16:25:32.768Z,6.80
2018-10-21T16:28:02.840Z,8.93
2018-10-21T16:30:32.747Z,6.83
2018-10-21T16:33:02.743Z,8.60
2018-10-21T16:35:32.745Z,8.23
2018-10-21T16:38:08.292Z,8.03
2018-10-21T16:40:38.467Z,8.50
2018-10-21T16:43:12.146Z,9.47
2018-10-21T16:45:42.383Z,8.27
2018-10-21T16:48:12.403Z,8.70
2018-10-21T16:50:42.496Z,8.20
2018-10-21T16:53:12.595Z,8.00
2018-10-21T16:55:42.550Z,9.67
2018-10-21T16:58:12.641Z,9.43
2018-10-21T17:00:42.845Z,10.37
2018-10-21T17:03:12.797Z,10.20
2018-10-21T17:05:42.802Z,13.13
2018-10-21T17:08:12.777Z,11.67
2018-10-21T17:10:43.075Z,10.53
2018-10-21T17:13:16.372Z,10.37
2018-10-21T17:15:46.350Z,11.77
2018-10-21T17:18:16.628Z,11.53
2018-10-21T17:20:48.438Z,13.23
2018-10-21T17:23:18.493Z,11.10
2018-10-21T17:25:48.694Z,11.40
2018-10-21T17:28:19.887Z,15.57
2018-10-21T17:30:50.108Z,10.47
2018-10-21T17:33:20.119Z,10.97
2018-10-21T17:35:50.143Z,11.13
2018-10-21T17:38:33.325Z,9.93
2018-10-21T17:41:09.024Z,11.90
2018-10-21T17:43:43.694Z,11.93
2018-10-21T17:46:33.066Z,14.80
2018-10-21T17:49:03.319Z,15.07
2018-10-21T17:51:34.935Z,13.90
2018-10-21T17:54:15.913Z,16.77
2018-10-21T17:56:57.778Z,16.50
2018-10-21T17:59:39.091Z,20.80
2018-10-21T18:02:09.154Z,15.27
2018-10-21T18:04:39.265Z,20.37
2018-10-21T18:07:09.284Z,15.10
2018-10-21T18:09:39.345Z,19.73
2018-10-21T18:12:09.462Z,15.70
2018-10-21T18:14:39.616Z,19.33
2018-10-21T18:17:09.737Z,18.27
2018-10-21T18:19:43.413Z,16.87
2018-10-21T18:22:13.515Z,17.27
2018-10-21T18:24:43.521Z,16.83
2018-10-21T18:27:13.676Z,15.90
2018-10-21T18:29:43.731Z,18.03
2018-10-21T18:32:13.792Z,18.00
2018-10-21T18:34:44.066Z,19.63
2018-10-21T18:37:14.253Z,17.27
2018-10-21T18:39:44.192Z,16.53
2018-10-21T18:42:14.326Z,17.93
2018-10-21T18:44:44.415Z,18.50
2018-10-21T18:47:14.624Z,15.43
2018-10-21T18:49:44.730Z,16.87
2018-10-21T18:52:14.989Z,16.57
2018-10-21T18:54:45.106Z,16.93
2018-10-21T18:57:15.109Z,17.37
2018-10-21T18:59:45.168Z,18.07
2018-10-21T19:02:15.174Z,17.20
2018-10-21T19:04:45.206Z,16.30
2018-10-21T19:07:15.266Z,16.60
2018-10-21T19:09:45.324Z,17.57
2018-10-21T19:12:15.342Z,20.23
2018-10-21T19:14:45.392Z,15.47
2018-10-21T19:17:15.411Z,17.63
2018-10-21T19:19:45.517Z,19.10
2018-10-21T19:22:15.674Z,15.40
2018-10-21T19:24:45.699Z,15.30
2018-10-21T19:27:15.955Z,14.00
2018-10-21T19:29:46.005Z,14.50
2018-10-21T19:32:16.201Z,16.80
2018-10-21T19:34:46.235Z,17.40
2018-10-21T19:37:16.780Z,13.77
2018-10-21T19:39:46.966Z,14.13
2018-10-21T19:42:17.264Z,16.50
2018-10-21T19:44:47.921Z,15.80
2018-10-21T19:47:18.211Z,15.63
2018-10-21T19:49:48.291Z,14.50
2018-10-21T19:52:18.352Z,14.77
2018-10-21T19:54:48.514Z,17.70
2018-10-21T19:57:18.615Z,15.20
2018-10-21T19:59:48.811Z,15.27
2018-10-21T20:02:19.549Z,15.20
2018-10-21T20:04:50.421Z,15.63
2018-10-21T20:07:20.562Z,14.73
2018-10-21T20:09:50.860Z,14.83
2018-10-21T20:12:21.332Z,13.77
2018-10-21T20:14:51.647Z,16.20
2018-10-21T20:17:21.821Z,14.23
2018-10-21T20:19:52.922Z,17.17
2018-10-21T20:22:23.092Z,17.53
2018-10-21T20:24:53.214Z,18.00
2018-10-21T20:27:23.401Z,14.93
2018-10-21T20:29:53.434Z,13.73
2018-10-21T20:32:23.534Z,14.03
2018-10-21T20:34:53.695Z,14.80
2018-10-21T20:37:24.525Z,13.87
2018-10-21T20:39:54.691Z,13.93
2018-10-21T20:42:24.827Z,14.97
2018-10-21T20:44:54.852Z,16.50
2018-10-21T20:47:24.875Z,18.50
2018-10-21T20:49:54.877Z,14.40
2018-10-21T20:52:24.894Z,13.40
2018-10-21T20:54:54.860Z,16.63
2018-10-21T20:57:24.861Z,17.33
2018-10-21T20:59:54.986Z,16.17
2018-10-21T21:02:25.089Z,17.73
2018-10-21T21:04:55.095Z,18.73
2018-10-21T21:07:25.051Z,13.87
2018-10-21T21:09:55.111Z,12.77
2018-10-21T21:12:25.109Z,13.47
2018-10-21T21:14:55.188Z,12.33
2018-10-21T21:17:25.318Z,15.10
2018-10-21T21:19:54.911Z,11.87
2018-10-21T21:22:24.995Z,13.10
2018-10-21T21:24:55.071Z,12.30
2018-10-21T21:27:25.228Z,15.07
2018-10-21T21:29:55.164Z,12.47
2018-10-21T21:32:25.205Z,13.47
2018-10-21T21:34:55.221Z,13.00
2018-10-21T21:37:25.257Z,14.07
2018-10-21T21:40:01.621Z,13.77
2018-10-21T21:42:31.725Z,14.43
2018-10-21T21:45:01.674Z,13.10
2018-10-21T21:47:31.592Z,12.90
2018-10-21T21:50:01.580Z,15.57
2018-10-21T21:52:31.629Z,14.40
2018-10-21T21:55:01.616Z,14.03
2018-10-21T21:57:31.757Z,14.73
2018-10-21T22:00:01.913Z,13.23
2018-10-21T22:02:31.834Z,13.10
2018-10-21T22:05:01.879Z,13.37
2018-10-21T22:07:31.938Z,13.40
2018-10-21T22:10:01.868Z,13.37
2018-10-21T22:12:31.929Z,14.63
2018-10-21T22:15:01.922Z,15.10
2018-10-21T22:17:31.977Z,14.30
2018-10-21T22:20:01.989Z,15.37
2018-10-21T22:22:32.042Z,15.00
2018-10-21T22:25:02.001Z,16.30
2018-10-21T22:27:32.019Z,13.27
2018-10-21T22:30:02.001Z,14.67
2018-10-21T22:32:32.031Z,14.90
2018-10-21T22:35:02.109Z,13.83
2018-10-21T22:37:32.145Z,15.13
2018-10-21T22:40:02.171Z,13.87
2018-10-21T22:42:32.722Z,13.57
2018-10-21T22:45:02.765Z,15.37
2018-10-21T22:47:32.821Z,13.87
2018-10-21T22:50:02.867Z,16.10
2018-10-21T22:52:32.937Z,15.40
2018-10-21T22:55:02.955Z,15.13
2018-10-21T22:57:32.979Z,16.57
2018-10-21T23:00:03.023Z,14.00
2018-10-21T23:02:33.108Z,14.07
2018-10-21T23:05:03.166Z,14.03
2018-10-21T23:07:33.260Z,13.03
2018-10-21T23:10:03.328Z,15.10
2018-10-21T23:12:33.324Z,14.53
2018-10-21T23:15:03.354Z,17.23
2018-10-21T23:17:33.410Z,15.43
2018-10-21T23:20:03.360Z,15.90
2018-10-21T23:22:33.378Z,16.50
2018-10-21T23:25:03.413Z,16.33
2018-10-21T23:27:33.465Z,14.03
2018-10-21T23:30:03.548Z,15.23
2018-10-21T23:32:33.580Z,14.10
2018-10-21T23:35:03.554Z,17.57
2018-10-21T23:37:33.609Z,13.77
2018-10-21T23:40:03.703Z,13.83
2018-10-21T23:42:33.689Z,14.67
2018-10-21T23:45:03.679Z,15.47
2018-10-21T23:47:33.617Z,18.47
2018-10-21T23:50:03.746Z,14.23
2018-10-21T23:52:33.659Z,15.97
2018-10-21T23:55:03.714Z,13.47
2018-10-21T23:57:33.819Z,15.03
